Time;durP1;ratioP1;P1;durP2;ratioP2;P2;SDS_P1;SDS_P2;PMS_P1;PMS_P2;Temp;Humidity;BMP_temperature;BMP_pressure;BME280_temperature;BME280_humidity;BME280_pressure;Samples;Min_cycle;Max_cycle;Signal;HPM_P1;HPM_P2
2023/12/01 00:00:30;;;;;;;18.00;13.77;;;;;;;8.06;56.97;97053.22;8416301;23;20211;-90
2023/12/01 00:03:52;;;;;;;18.27;13.97;;;;;;;8.38;56.51;97057.25;8415022;23;20213;-90
2023/12/01 00:07:14;;;;;;;18.07;14.07;;;;;;;8.09;55.93;97004.47;8404364;23;20231;-89
2023/12/01 00:10:35;;;;;;;18.03;13.67;;;;;;;8.13;56.61;97062.00;8401482;23;20231;-89
2023/12/01 00:13:58;;;;;;;19.00;14.93;;;;;;;8.09;57.41;97094.91;8402061;23;20210;-90
2023/12/01 00:17:20;;;;;;;21.67;15.03;;;;;;;8.37;57.43;97103.94;8399054;23;20236;-90
2023/12/01 00:20:43;;;;;;;17.97;13.27;;;;;;;8.18;56.52;97031.75;8398551;23;20324;-90
2023/12/01 00:24:04;;;;;;;22.17;15.67;;;;;;;7.19;57.66;96966.53;8399710;23;20183;-90
2023/12/01 00:27:26;;;;;;;19.67;14.60;;;;;;;7.76;58.26;97060.53;8414132;23;20309;-89
2023/12/01 00:30:49;;;;;;;18.50;15.00;;;;;;;8.39;57.81;97093.81;8416435;23;20201;-90
2023/12/01 00:34:11;;;;;;;21.43;15.33;;;;;;;7.89;57.69;97020.09;8402001;23;20214;-90
2023/12/01 00:37:33;;;;;;;20.87;15.13;;;;;;;7.66;57.81;97014.69;8400746;23;20188;-90
2023/12/01 00:40:54;;;;;;;21.80;16.83;;;;;;;7.79;58.45;97049.31;8414199;23;20234;-88
2023/12/01 00:44:16;;;;;;;20.83;14.83;;;;;;;8.23;57.78;97072.19;8401096;23;20488;-90
2023/12/01 00:47:39;;;;;;;25.57;20.20;;;;;;;8.23;57.50;97061.44;8413639;23;20176;-90
2023/12/01 00:51:01;;;;;;;22.40;14.63;;;;;;;7.75;57.87;97098.31;8412326;23;20209;-87
2023/12/01 00:54:23;;;;;;;22.20;14.97;;;;;;;7.34;58.47;97044.66;8420296;23;20205;-88
2023/12/01 00:57:45;;;;;;;19.63;15.40;;;;;;;7.17;60.23;97043.66;8409159;23;20197;-87
2023/12/01 01:01:08;;;;;;;20.67;15.77;;;;;;;8.08;59.03;97104.00;8407867;23;20259;-88
2023/12/01 01:04:31;;;;;;;21.50;15.90;;;;;;;7.97;58.54;97064.53;8421740;23;20566;-88
2023/12/01 01:07:53;;;;;;;19.17;14.77;;;;;;;8.35;58.26;97103.38;8422770;23;20201;-88
2023/12/01 01:11:15;;;;;;;19.20;14.43;;;;;;;7.80;58.69;97085.03;8409144;23;20731;-88
2023/12/01 01:14:36;;;;;;;21.23;14.77;;;;;;;8.07;58.95;97086.28;8408942;23;20268;-88
2023/12/01 01:17:58;;;;;;;27.23;17.97;;;;;;;8.23;58.06;97112.44;8410719;23;20199;-88
2023/12/01 01:21:21;;;;;;;20.50;14.73;;;;;;;8.24;58.33;97112.22;8425400;23;20259;-89
2023/12/01 01:24:43;;;;;;;22.87;14.60;;;;;;;6.60;60.68;97041.47;8422251;23;20213;-91
2023/12/01 01:28:05;;;;;;;23.33;16.37;;;;;;;6.69;61.58;97043.63;8438177;23;20182;-89
2023/12/01 01:31:26;;;;;;;27.20;17.27;;;;;;;7.32;61.89;97103.84;8439801;23;20199;-89
2023/12/01 01:34:48;;;;;;;25.47;17.20;;;;;;;7.56;61.56;97105.59;8411155;23;20206;-88
2023/12/01 01:38:11;;;;;;;23.53;15.83;;;;;;;7.77;61.48;97118.50;8405775;23;20277;-90
2023/12/01 01:41:32;;;;;;;31.90;19.97;;;;;;;7.80;60.82;97123.41;8419307;23;20201;-89
2023/12/01 01:44:54;;;;;;;27.57;17.33;;;;;;;7.88;60.87;97114.19;8414769;23;20631;-89
2023/12/01 01:48:16;;;;;;;23.10;17.10;;;;;;;8.31;59.79;97114.81;8408977;23;20182;-89
2023/12/01 01:51:37;;;;;;;24.07;17.00;;;;;;;8.17;59.51;97119.53;8406111;23;20205;-90
2023/12/01 01:55:00;;;;;;;21.73;15.37;;;;;;;8.10;59.44;97113.47;8406296;23;20210;-89
2023/12/01 01:58:22;;;;;;;25.87;17.83;;;;;;;7.97;59.24;97113.66;8408543;23;20187;-90
2023/12/01 02:01:44;;;;;;;28.60;18.47;;;;;;;7.03;62.30;97110.00;8413746;23;20206;-89
2023/12/01 02:05:12;;;;;;;27.30;18.37;;;;;;;7.03;62.42;97126.06;8433676;23;20513;-90
2023/12/01 02:08:35;;;;;;;27.63;19.27;;;;;;;6.84;62.83;97091.47;8430563;23;20162;-90
2023/12/01 02:11:59;;;;;;;29.77;18.83;;;;;;;7.15;62.39;97096.66;8420283;23;20210;-90
2023/12/01 02:15:21;;;;;;;33.53;20.80;;;;;;;7.35;62.18;97086.50;8404738;23;20294;-90
2023/12/01 02:18:42;;;;;;;26.37;19.77;;;;;;;7.63;60.87;97103.66;8420967;23;20189;-90
2023/12/01 02:22:05;;;;;;;27.20;18.27;;;;;;;7.91;60.60;97141.38;8418738;23;20221;-90
2023/12/01 02:25:27;;;;;;;30.00;20.27;;;;;;;7.35;60.55;97076.59;8411898;23;20182;-88
2023/12/01 02:28:48;;;;;;;28.27;20.17;;;;;;;7.45;60.95;97033.97;8432885;23;20197;-89
2023/12/01 02:32:10;;;;;;;24.20;18.17;;;;;;;8.23;59.89;97140.13;8423895;23;20241;-89
2023/12/01 02:35:31;;;;;;;29.53;18.77;;;;;;;8.20;60.15;97139.75;8434083;23;20206;-89
2023/12/01 02:38:54;;;;;;;26.90;17.80;;;;;;;8.09;60.19;97140.53;8403760;23;20276;-89
2023/12/01 02:42:16;;;;;;;28.97;19.47;;;;;;;7.67;60.44;97090.59;8404076;23;20663;-90
2023/12/01 02:45:37;;;;;;;25.40;18.17;;;;;;;7.98;59.74;97095.69;8412185;23;20195;-90
2023/12/01 02:48:59;;;;;;;26.60;19.20;;;;;;;7.67;59.61;97050.38;8404830;23;20193;-90
2023/12/01 02:52:20;;;;;;;25.37;17.90;;;;;;;8.05;59.29;97099.06;8403216;23;20296;-90
2023/12/01 02:55:43;;;;;;;23.20;17.20;;;;;;;8.36;59.10;97144.47;8416675;23;20292;-89
2023/12/01 02:59:05;;;;;;;28.03;19.77;;;;;;;8.01;59.57;97108.66;8406483;23;20182;-90
2023/12/01 03:02:28;;;;;;;24.37;17.60;;;;;;;8.18;58.60;97131.91;8408668;23;20205;-90
2023/12/01 03:05:50;;;;;;;22.10;16.53;;;;;;;8.14;58.33;97117.28;8425586;23;20184;-89
2023/12/01 03:09:16;;;;;;;22.17;17.43;;;;;;;8.07;58.78;97129.22;8420254;23;20697;-90
2023/12/01 03:12:41;;;;;;;26.93;17.33;;;;;;;7.68;58.88;97101.09;8415359;23;20194;-90
2023/12/01 03:16:02;;;;;;;22.90;16.73;;;;;;;8.09;58.72;97125.25;8417882;23;20692;-90
2023/12/01 03:19:24;;;;;;;23.53;17.00;;;;;;;7.42;58.62;97055.88;8411976;23;20247;-89
2023/12/01 03:22:47;;;;;;;26.63;18.60;;;;;;;7.51;59.20;97075.97;8416264;23;20202;-90
2023/12/01 03:26:08;;;;;;;23.57;17.37;;;;;;;8.08;58.97;97158.47;8417877;23;20178;-90
2023/12/01 03:29:32;;;;;;;25.87;18.23;;;;;;;7.69;58.48;97107.25;8415464;23;20897;-92
2023/12/01 03:32:55;;;;;;;26.10;18.33;;;;;;;7.65;59.58;97157.88;8414859;23;20272;-89
2023/12/01 03:36:21;;;;;;;27.07;18.63;;;;;;;7.99;58.65;97161.72;8424122;23;20202;-88
2023/12/01 03:39:57;;;;;;;25.57;18.87;;;;;;;7.44;59.53;97161.03;8431014;23;20197;-88
2023/12/01 03:43:44;;;;;;;26.80;19.23;;;;;;;7.32;60.12;97141.38;8379818;23;20182;-89
2023/12/01 03:47:08;;;;;;;28.63;19.37;;;;;;;6.97;59.73;97102.84;8430573;23;20177;-89
2023/12/01 03:58:09;;;;;;;27.83;19.80;;;;;;;7.57;59.07;97150.16;8401748;23;20516;-87
2023/12/01 04:06:27;;;;;;;31.93;18.43;;;;;;;7.56;59.30;97161.09;8473744;23;20178;-91
2023/12/01 04:14:04;;;;;;;26.97;18.53;;;;;;;7.19;58.52;97065.69;8081617;24;20221;-89
2023/12/01 04:25:21;;;;;;;33.17;20.50;;;;;;;6.88;61.07;97159.59;8229085;24;20189;-88
2023/12/01 04:28:46;;;;;;;31.03;20.60;;;;;;;6.73;60.49;97127.81;8277959;24;20189;-89
2023/12/01 04:32:07;;;;;;;33.60;20.90;;;;;;;6.70;60.55;97128.28;8265981;24;20203;-89
2023/12/01 04:39:25;;;;;;;32.70;20.67;;;;;;;7.01;60.62;97170.19;8001375;24;20268;-88
2023/12/01 04:42:50;;;;;;;31.33;21.03;;;;;;;6.56;60.85;97142.00;8027286;24;20210;-88
2023/12/01 04:46:53;;;;;;;34.43;22.30;;;;;;;6.75;61.58;97157.88;8042592;24;20222;-88
2023/12/01 04:50:15;;;;;;;31.03;21.00;;;;;;;6.75;60.86;97143.66;8049650;24;20215;-88
2023/12/01 04:53:37;;;;;;;32.13;21.70;;;;;;;6.85;61.53;97176.13;8265313;24;20180;-89
2023/12/01 04:57:00;;;;;;;35.40;22.10;;;;;;;6.77;61.14;97153.13;8256657;24;20242;-90
2023/12/01 05:00:25;;;;;;;33.40;21.67;;;;;;;6.44;61.54;97122.34;8253394;24;20307;-89
2023/12/01 05:03:47;;;;;;;35.57;23.37;;;;;;;6.46;62.14;97180.00;8262598;24;20252;-90
2023/12/01 05:07:09;;;;;;;35.00;23.07;;;;;;;5.89;61.75;97059.06;8261578;23;20208;-90
2023/12/01 05:10:32;;;;;;;33.40;23.10;;;;;;;6.13;62.15;97109.06;8265024;23;20205;-89
2023/12/01 05:13:55;;;;;;;31.57;22.97;;;;;;;6.56;60.95;97117.91;8267178;23;20188;-90
2023/12/01 05:17:16;;;;;;;34.43;23.13;;;;;;;6.71;61.20;97121.06;8377085;23;20198;-90
2023/12/01 05:20:38;;;;;;;38.87;22.87;;;;;;;6.46;60.81;97129.13;8374065;23;20244;-90
2023/12/01 05:24:00;;;;;;;38.20;24.57;;;;;;;6.29;61.67;97148.63;8400468;23;20650;-90
2023/12/01 05:27:21;;;;;;;37.80;24.03;;;;;;;6.81;61.69;97178.44;8400496;23;20526;-90
2023/12/01 05:30:46;;;;;;;34.37;22.80;;;;;;;6.89;61.24;97162.06;8400365;23;20210;-89
2023/12/01 05:34:08;;;;;;;34.30;22.77;;;;;;;6.91;61.06;97148.47;8420986;23;20182;-88
2023/12/01 05:37:30;;;;;;;31.53;22.07;;;;;;;6.44;61.03;97101.78;8411595;23;20798;-87
2023/12/01 05:40:55;;;;;;;32.30;21.93;;;;;;;6.38;61.10;97099.16;8424938;23;20206;-87
2023/12/01 05:44:17;;;;;;;30.80;22.23;;;;;;;6.31;62.16;97152.72;8421588;23;20169;-87
2023/12/01 05:47:44;;;;;;;34.43;23.63;;;;;;;6.76;61.60;97186.31;8412824;23;20186;-87
2023/12/01 05:51:07;;;;;;;32.73;22.63;;;;;;;6.21;61.42;97132.84;8425512;23;20197;-87
2023/12/01 05:54:34;;;;;;;35.00;22.40;;;;;;;6.55;61.79;97159.91;8427632;23;20707;-88
2023/12/01 05:57:57;;;;;;;32.97;22.93;;;;;;;6.68;61.28;97173.22;8425055;23;20200;-89
2023/12/01 06:01:19;;;;;;;33.40;23.30;;;;;;;6.18;62.13;97144.00;8420838;23;20201;-90
2023/12/01 06:05:15;;;;;;;34.40;23.60;;;;;;;6.73;61.95;97212.72;8401256;23;20185;-87
2023/12/01 06:08:38;;;;;;;42.13;25.13;;;;;;;6.36;62.17;97155.56;8407552;23;20261;-90
2023/12/01 09:54:51;;;;;;;28.63;22.07;;;;;;;6.98;61.77;97334.06;8443986;23;20220;-89
2023/12/01 10:07:12;;;;;;;26.83;22.27;;;;;;;7.26;61.35;97323.72;8466802;23;20188;-88
2023/12/01 10:11:26;;;;;;;28.90;21.63;;;;;;;7.04;60.94;97303.69;8463728;23;20208;-90
2023/12/01 11:08:55;;;;;;;37.30;25.27;;;;;;;7.00;61.83;97252.41;8433277;23;20182;-88
2023/12/01 13:58:41;;;;;;;36.47;25.13;;;;;;;7.03;61.54;97238.59;8422281;22;20205;-88
2023/12/01 14:02:03;;;;;;;38.43;26.87;;;;;;;7.15;61.59;97268.16;8460173;23;20542;-86
2023/12/01 14:09:54;;;;;;;35.87;24.73;;;;;;;6.92;61.58;97254.56;8472100;23;20152;-89
2023/12/01 14:13:15;;;;;;;39.60;27.30;;;;;;;7.21;61.44;97284.19;8455071;23;20205;-88
2023/12/01 14:16:40;;;;;;;44.33;26.93;;;;;;;6.70;61.63;97226.53;8456433;23;20215;-91
2023/12/01 14:20:21;;;;;;;42.20;27.50;;;;;;;6.93;60.91;97224.88;8453461;23;20220;-88
2023/12/01 14:35:41;;;;;;;49.37;29.67;;;;;;;6.26;62.14;97211.41;8428541;23;20200;-88
2023/12/01 14:39:18;;;;;;;44.97;28.80;;;;;;;6.40;62.53;97215.66;8428729;23;20208;-88
2023/12/01 14:42:39;;;;;;;44.60;30.20;;;;;;;6.84;62.52;97295.81;8477905;23;20201;-89
2023/12/01 14:46:05;;;;;;;45.70;28.60;;;;;;;6.03;62.38;97188.97;8469258;23;20525;-89
2023/12/01 14:57:22;;;;;;;48.03;29.00;;;;;;;6.82;61.70;97278.34;8333176;23;20394;-88
2023/12/01 15:13:33;;;;;;;40.33;28.27;;;;;;;6.41;63.48;97313.66;8051525;24;20214;-88
2023/12/01 15:20:49;;;;;;;52.77;31.67;;;;;;;6.81;62.01;97293.59;8404349;23;20200;-88
2023/12/01 15:37:01;;;;;;;42.67;26.03;;;;;;;6.43;62.92;97306.22;8307168;23;20274;-85
2023/12/01 15:40:23;;;;;;;46.33;27.33;;;;;;;6.08;62.79;97224.72;8386816;23;20234;-84
2023/12/01 15:43:44;;;;;;;43.17;26.67;;;;;;;6.31;63.23;97283.84;8379030;23;20749;-85
2023/12/01 15:47:06;;;;;;;44.07;27.40;;;;;;;6.19;63.22;97266.03;8389062;23;20188;-84
2023/12/01 15:50:28;;;;;;;43.93;29.40;;;;;;;6.17;63.43;97309.06;8375784;23;20207;-86
2023/12/01 15:53:52;;;;;;;47.33;29.87;;;;;;;6.45;62.99;97300.66;8345320;23;20196;-85
2023/12/01 15:57:13;;;;;;;47.90;29.47;;;;;;;6.54;62.74;97291.34;8286636;23;20208;-84
2023/12/01 16:00:35;;;;;;;48.10;29.47;;;;;;;6.46;62.61;97304.97;8297411;23;20220;-84
2023/12/01 16:03:56;;;;;;;48.70;29.80;;;;;;;6.47;63.19;97303.91;8304233;23;20638;-83
2023/12/01 16:07:19;;;;;;;49.47;28.93;;;;;;;6.34;62.72;97296.81;8293249;23;20167;-84
2023/12/01 16:10:42;;;;;;;50.10;30.40;;;;;;;6.35;62.23;97284.22;8303239;23;20229;-85
2023/12/01 16:14:05;;;;;;;49.30;29.97;;;;;;;6.47;62.26;97296.72;8308963;23;20270;-85
2023/12/01 16:17:27;;;;;;;53.30;30.27;;;;;;;5.90;62.62;97219.25;8303195;23;20196;-85
2023/12/01 16:20:49;;;;;;;49.17;30.53;;;;;;;6.40;62.93;97312.00;8291983;23;20233;-85
2023/12/01 16:24:11;;;;;;;55.10;31.27;;;;;;;6.35;62.48;97295.78;8287233;23;20319;-84
2023/12/01 16:27:34;;;;;;;49.70;30.47;;;;;;;5.84;63.20;97224.66;8304907;23;20164;-85
2023/12/01 16:30:56;;;;;;;51.40;29.60;;;;;;;6.35;63.05;97301.13;8291321;23;20208;-85
2023/12/01 16:34:18;;;;;;;52.00;30.70;;;;;;;6.51;62.88;97281.88;8419816;23;20214;-85
2023/12/01 16:37:40;;;;;;;63.63;32.87;;;;;;;6.44;62.43;97313.22;8470455;23;20275;-85
2023/12/01 16:41:02;;;;;;;51.33;31.47;;;;;;;6.52;62.65;97291.53;8464921;23;20200;-86
2023/12/01 16:48:35;;;;;;;47.83;29.57;;;;;;;6.35;62.46;97233.38;8413712;23;20663;-88
2023/12/01 16:51:59;;;;;;;47.60;30.03;;;;;;;7.08;62.50;97312.97;8456033;23;20181;-87
2023/12/01 16:55:58;;;;;;;57.77;31.50;;;;;;;6.86;61.54;97311.69;8454490;23;20177;-85
2023/12/01 16:59:19;;;;;;;56.90;32.17;;;;;;;6.75;61.91;97310.53;8454981;23;20401;-87
2023/12/01 17:06:59;;;;;;;45.83;28.83;;;;;;;6.80;61.94;97259.00;8471961;23;20150;-87
2023/12/01 17:10:28;;;;;;;50.43;29.43;;;;;;;6.97;61.16;97265.44;8457406;23;20492;-90
2023/12/01 17:14:17;;;;;;;53.20;32.97;;;;;;;6.77;62.19;97305.78;8463384;23;20675;-87
2023/12/01 17:35:21;;;;;;;46.73;27.57;;;;;;;6.54;62.80;97336.84;8479525;23;20147;-89
2023/12/01 17:51:08;;;;;;;47.93;28.13;;;;;;;6.21;63.22;97286.19;8306927;23;20202;-87
2023/12/01 17:54:30;;;;;;;49.03;27.50;;;;;;;6.35;62.88;97292.25;8307414;23;20183;-86
2023/12/01 17:57:52;;;;;;;51.87;28.50;;;;;;;6.41;62.81;97318.16;8297045;23;20191;-85
2023/12/01 18:01:14;;;;;;;54.77;28.97;;;;;;;6.39;62.55;97294.31;8298324;23;20700;-85
2023/12/01 18:04:39;;;;;;;53.00;28.40;;;;;;;6.35;62.72;97319.03;8294208;23;20188;-84
2023/12/01 18:08:08;;;;;;;56.97;29.70;;;;;;;6.16;62.62;97264.59;8312004;23;20305;-86
2023/12/01 18:20:00;;;;;;;53.20;30.37;;;;;;;6.43;62.49;97310.75;7993973;24;20211;-86
2023/12/01 18:23:23;;;;;;;59.87;31.40;;;;;;;6.05;62.43;97243.88;8072091;24;20187;-86
2023/12/01 18:26:45;;;;;;;54.90;30.17;;;;;;;6.49;62.74;97315.25;8200970;23;20221;-86
2023/12/01 18:34:56;;;;;;;54.90;30.73;;;;;;;6.56;62.97;97324.91;8342040;23;20174;-85
2023/12/01 18:38:33;;;;;;;62.03;31.60;;;;;;;6.60;62.64;97331.44;8264044;24;20201;-85
2023/12/01 18:41:57;;;;;;;66.20;34.07;;;;;;;5.89;62.58;97188.22;8261566;24;20195;-85
2023/12/01 18:45:28;;;;;;;62.80;32.40;;;;;;;6.31;62.89;97296.44;8272895;24;20188;-85
2023/12/01 18:48:51;;;;;;;63.73;32.77;;;;;;;6.16;62.63;97259.25;8265378;23;20239;-85
2023/12/01 18:52:23;;;;;;;58.50;31.50;;;;;;;6.61;62.77;97333.06;8340305;23;20194;-88
2023/12/01 18:55:45;;;;;;;59.90;32.60;;;;;;;6.76;62.05;97332.78;8348816;23;20626;-87
2023/12/01 19:03:35;;;;;;;71.13;38.03;;;;;;;6.69;62.27;97334.69;8236835;24;20190;-91
2023/12/01 19:06:57;;;;;;;68.03;35.07;;;;;;;6.63;62.74;97349.75;8317640;23;20198;-85
2023/12/01 19:10:19;;;;;;;65.27;32.47;;;;;;;6.69;62.28;97303.38;8296391;23;20201;-85
2023/12/01 19:13:47;;;;;;;58.70;30.23;;;;;;;7.30;61.53;97332.97;8310448;23;20210;-86
2023/12/01 19:17:08;;;;;;;60.97;30.80;;;;;;;7.10;60.75;97333.13;8429586;23;20216;-88
2023/12/01 19:20:41;;;;;;;57.10;30.50;;;;;;;6.98;61.25;97331.38;8416446;23;20214;-90
2023/12/01 19:36:31;;;;;;;63.30;31.60;;;;;;;6.62;61.47;97288.38;8398147;23;20585;-86
2023/12/01 19:56:37;;;;;;;59.20;32.20;;;;;;;6.30;62.24;97333.06;8275349;23;20186;-88
2023/12/01 19:59:59;;;;;;;56.83;32.33;;;;;;;6.46;62.52;97363.84;8291951;23;20204;-86
2023/12/01 20:03:21;;;;;;;60.67;31.80;;;;;;;6.36;62.45;97355.47;8308450;23;20185;-86
2023/12/01 20:06:43;;;;;;;56.00;29.77;;;;;;;6.39;62.82;97366.59;8312305;23;20183;-86
2023/12/01 20:10:20;;;;;;;64.60;32.10;;;;;;;6.47;62.67;97362.81;8311721;23;20211;-85
2023/12/01 20:14:12;;;;;;;57.20;29.90;;;;;;;6.54;62.35;97359.06;8295689;23;20186;-87
2023/12/01 20:17:37;;;;;;;56.77;29.73;;;;;;;6.44;62.50;97340.00;8306242;23;20272;-86
2023/12/01 20:21:03;;;;;;;53.53;30.70;;;;;;;6.31;62.39;97304.44;8309351;23;20206;-84
2023/12/01 20:24:25;;;;;;;50.63;28.70;;;;;;;6.56;62.23;97329.41;8311457;23;20234;-85
2023/12/01 20:36:01;;;;;;;55.83;31.60;;;;;;;6.47;62.50;97330.69;8179336;24;20276;-86
2023/12/01 20:39:23;;;;;;;56.23;32.03;;;;;;;5.76;62.91;97264.97;8266908;24;20208;-86
2023/12/01 20:42:44;;;;;;;57.77;32.90;;;;;;;6.01;63.17;97308.72;8255179;24;20637;-86
2023/12/01 20:46:18;;;;;;;54.80;31.70;;;;;;;6.18;62.75;97324.06;8267430;24;20597;-86
2023/12/01 20:49:42;;;;;;;55.70;29.30;;;;;;;5.78;62.88;97292.34;8268450;24;20200;-85
2023/12/01 20:53:05;;;;;;;53.50;28.73;;;;;;;6.40;63.28;97370.06;8253594;24;20194;-86
2023/12/01 20:56:27;;;;;;;48.07;27.93;;;;;;;6.18;63.09;97334.78;8275406;24;20188;-85
2023/12/01 20:59:58;;;;;;;46.83;26.23;;;;;;;6.47;63.20;97363.66;8274674;24;20284;-84
2023/12/01 21:03:19;;;;;;;45.73;27.47;;;;;;;6.32;62.67;97351.59;8275812;24;20235;-87
2023/12/01 21:06:41;;;;;;;43.47;26.20;;;;;;;6.12;62.87;97319.56;8262162;24;20196;-87
2023/12/01 21:10:05;;;;;;;44.13;25.63;;;;;;;6.62;62.61;97369.53;8267972;24;20229;-87
2023/12/01 21:13:26;;;;;;;48.77;30.73;;;;;;;6.51;62.71;97362.19;8404501;23;20181;-85
2023/12/01 21:16:48;;;;;;;43.43;25.37;;;;;;;6.40;62.45;97343.28;8417028;23;20184;-88
2023/12/01 21:20:27;;;;;;;44.30;26.47;;;;;;;6.60;61.72;97330.63;8429392;23;20321;-85
2023/12/01 21:23:49;;;;;;;38.57;24.73;;;;;;;6.49;61.51;97366.13;8311783;23;20500;-84
2023/12/01 21:27:12;;;;;;;43.43;27.20;;;;;;;6.21;61.56;97296.06;8312127;23;20189;-85
2023/12/01 21:30:33;;;;;;;47.07;27.13;;;;;;;6.34;62.00;97342.31;8308756;23;20222;-85
2023/12/01 21:33:55;;;;;;;46.07;26.43;;;;;;;6.55;61.87;97344.63;8290010;23;20203;-86
2023/12/01 21:37:17;;;;;;;44.70;26.37;;;;;;;6.51;62.55;97354.16;8292514;23;20203;-85
2023/12/01 21:40:43;;;;;;;42.30;25.43;;;;;;;6.39;62.57;97344.34;8332420;23;20206;-78
2023/12/01 21:44:06;;;;;;;39.33;24.73;;;;;;;6.48;62.32;97338.50;8363260;23;20175;-78
2023/12/01 21:47:27;;;;;;;55.73;31.63;;;;;;;6.62;62.47;97339.25;8363713;23;20181;-78
2023/12/01 21:50:49;;;;;;;61.40;34.27;;;;;;;6.63;62.28;97338.22;8362825;23;20280;-78
2023/12/01 21:54:10;;;;;;;53.37;32.30;;;;;;;6.77;61.48;97347.81;8364874;23;20233;-79
2023/12/01 21:57:32;;;;;;;39.57;23.23;;;;;;;6.56;61.89;97340.97;8364881;23;20222;-80
2023/12/01 22:00:54;;;;;;;35.63;21.43;;;;;;;6.44;61.75;97337.31;8362562;23;20281;-77
2023/12/01 22:04:16;;;;;;;34.97;22.50;;;;;;;6.53;62.15;97352.06;8362729;23;20272;-79
2023/12/01 22:07:37;;;;;;;34.73;22.10;;;;;;;6.44;61.79;97329.28;8371511;23;20212;-78
2023/12/01 22:10:59;;;;;;;34.80;22.03;;;;;;;6.40;61.99;97346.81;8377931;23;20215;-78
2023/12/01 22:14:20;;;;;;;33.73;21.27;;;;;;;6.48;62.28;97343.06;8363613;23;20260;-79
2023/12/01 22:17:43;;;;;;;34.43;22.03;;;;;;;6.57;61.70;97350.63;8361436;23;20228;-78
2023/12/01 22:21:05;;;;;;;34.73;21.90;;;;;;;6.56;61.96;97349.00;8363299;23;20210;-78
2023/12/01 22:24:27;;;;;;;33.57;23.30;;;;;;;6.35;62.22;97349.31;8364018;23;20312;-79
2023/12/01 22:27:48;;;;;;;34.83;21.57;;;;;;;6.27;62.22;97349.56;8369334;23;20189;-78
2023/12/01 22:31:10;;;;;;;31.60;21.47;;;;;;;6.46;62.15;97355.81;8365541;23;20740;-79
2023/12/01 22:34:33;;;;;;;31.77;22.00;;;;;;;6.63;61.26;97343.56;8364749;23;20219;-79
2023/12/01 22:37:54;;;;;;;31.07;20.63;;;;;;;6.72;61.07;97351.13;8363850;23;20582;-78
2023/12/01 22:41:19;;;;;;;30.00;20.80;;;;;;;6.96;60.94;97361.06;8376030;23;20287;-79
2023/12/01 22:44:40;;;;;;;31.23;20.20;;;;;;;6.54;61.03;97351.03;8363427;23;20191;-79
2023/12/01 22:48:02;;;;;;;32.57;19.53;;;;;;;6.68;61.36;97331.19;8359551;23;20656;-78
2023/12/01 22:51:25;;;;;;;31.93;21.20;;;;;;;6.60;61.52;97346.69;8363943;23;20257;-78
2023/12/01 22:54:46;;;;;;;33.50;21.47;;;;;;;6.54;61.57;97344.88;8361093;23;20255;-79
2023/12/01 22:58:08;;;;;;;29.90;20.63;;;;;;;6.49;61.51;97347.38;8362186;23;20229;-78
2023/12/01 23:01:29;;;;;;;29.00;19.40;;;;;;;6.46;61.50;97343.28;8363515;23;20583;-78
2023/12/01 23:04:51;;;;;;;29.03;18.57;;;;;;;6.63;61.09;97365.81;8362883;23;20267;-78
2023/12/01 23:08:14;;;;;;;29.70;20.13;;;;;;;6.52;61.21;97382.56;8362647;23;20186;-78
2023/12/01 23:11:35;;;;;;;26.77;19.17;;;;;;;6.79;60.58;97370.66;8363067;23;20238;-79
2023/12/01 23:14:57;;;;;;;31.87;20.83;;;;;;;6.47;60.96;97385.06;8363088;23;20191;-77
2023/12/01 23:18:18;;;;;;;27.90;20.03;;;;;;;6.50;61.60;97378.47;8361773;23;20209;-78
2023/12/01 23:21:40;;;;;;;33.17;20.43;;;;;;;6.56;60.56;97391.00;8360513;23;20213;-78
2023/12/01 23:25:04;;;;;;;29.33;19.83;;;;;;;6.58;61.16;97400.44;8372468;23;20645;-78
2023/12/01 23:28:25;;;;;;;28.67;19.03;;;;;;;6.73;60.70;97402.84;8358811;23;20182;-77
2023/12/01 23:31:47;;;;;;;29.70;19.57;;;;;;;6.56;60.26;97351.66;8370212;23;20635;-79
2023/12/01 23:35:08;;;;;;;27.93;19.33;;;;;;;6.49;60.64;97396.38;8370713;23;20190;-80
2023/12/01 23:38:30;;;;;;;30.57;19.73;;;;;;;6.55;60.92;97398.19;8372241;23;20272;-79
2023/12/01 23:41:53;;;;;;;31.50;20.37;;;;;;;6.52;61.11;97401.31;8371626;23;20251;-79
2023/12/01 23:45:14;;;;;;;31.50;19.93;;;;;;;6.52;61.21;97397.78;8373081;23;20550;-79
2023/12/01 23:48:36;;;;;;;32.37;20.67;;;;;;;6.22;61.71;97362.75;8369311;23;20171;-78
2023/12/01 23:51:58;;;;;;;30.07;20.50;;;;;;;6.37;61.67;97355.25;8372714;23;20189;-79
2023/12/01 23:55:19;;;;;;;27.60;19.57;;;;;;;6.13;61.64;97342.59;8373470;23;20186;-79
2023/12/01 23:58:42;;;;;;;31.80;20.27;;;;;;;6.35;61.52;97349.31;8372724;23;20215;-79
